createdAt,value
2019-03-30T00:08:09.842Z,77.40
2019-03-30T00:13:14.154Z,77.40
2019-03-30T00:23:24.774Z,77.30
2019-03-30T00:28:29.002Z,77.70
2019-03-30T00:33:35.487Z,77.40
2019-03-30T00:43:43.840Z,77.50
2019-03-30T00:48:48.585Z,77.40
2019-03-30T00:58:58.224Z,77.40
2019-03-30T01:09:08.962Z,77.10
2019-03-30T01:14:13.511Z,77.20
2019-03-30T01:19:18.622Z,77.80
2019-03-30T01:24:23.622Z,78.30
2019-03-30T01:29:27.943Z,78.50
2019-03-30T01:34:36.432Z,78.50
2019-03-30T01:39:40.617Z,78.70
2019-03-30T01:44:45.162Z,78.90
2019-03-30T01:49:49.361Z,78.90
2019-03-30T01:54:53.834Z,78.50
2019-03-30T01:59:58.009Z,79.10
2019-03-30T02:05:02.220Z,79.10
2019-03-30T02:10:11.388Z,79.20
2019-03-30T02:15:16.054Z,79.30
2019-03-30T02:20:37.416Z,79.30
2019-03-30T02:25:41.944Z,79.60
2019-03-30T02:30:47.833Z,79.30
2019-03-30T02:35:58.758Z,79.30
2019-03-30T02:41:03.355Z,80.40
2019-03-30T02:46:07.594Z,79.30
2019-03-30T02:51:12.614Z,78.80
2019-03-30T02:56:17.199Z,78.70
2019-03-30T03:01:22.197Z,78.70
2019-03-30T03:11:31.000Z,78.70
2019-03-30T03:16:35.823Z,78.70
2019-03-30T03:21:41.713Z,78.80
2019-03-30T03:26:46.505Z,78.80
2019-03-30T03:31:50.950Z,78.80
2019-03-30T03:36:55.436Z,79.10
2019-03-30T03:42:00.874Z,78.90
2019-03-30T03:47:05.417Z,79.20
2019-03-30T03:52:11.208Z,79.50
2019-03-30T03:57:20.232Z,79.50
2019-03-30T04:02:29.902Z,79.30
2019-03-30T04:07:39.650Z,79.60
2019-03-30T04:22:55.124Z,79.40
2019-03-30T04:33:05.207Z,79.30
2019-03-30T04:38:09.447Z,78.90
2019-03-30T04:43:13.681Z,78.90
2019-03-30T04:48:20.141Z,78.60
2019-03-30T04:53:24.294Z,78.60
2019-03-30T04:58:28.880Z,78.30
2019-03-30T05:03:33.024Z,77.90
2019-03-30T05:08:37.377Z,77.80
2019-03-30T05:13:41.551Z,77.00
2019-03-30T05:18:47.257Z,77.20
2019-03-30T05:23:51.385Z,76.90
2019-03-30T05:28:55.540Z,76.30
2019-03-30T05:34:00.063Z,76.90
2019-03-30T05:39:05.064Z,76.00
2019-03-30T05:44:09.177Z,76.20
2019-03-30T05:49:13.581Z,75.60
2019-03-30T05:54:17.692Z,75.40
2019-03-30T05:59:22.575Z,73.50
2019-03-30T06:04:27.794Z,74.20
2019-03-30T06:09:32.230Z,74.80
2019-03-30T06:14:36.535Z,75.20
2019-03-30T06:19:41.981Z,74.70
2019-03-30T06:24:46.960Z,73.30
2019-03-30T06:30:15.503Z,72.60
2019-03-30T06:35:19.808Z,72.80
2019-03-30T06:40:24.316Z,72.80
2019-03-30T06:45:29.392Z,72.80
2019-03-30T06:50:33.617Z,72.80
2019-03-30T06:55:38.242Z,72.60
2019-03-30T07:00:42.585Z,72.80
2019-03-30T07:05:46.788Z,72.30
2019-03-30T07:10:50.902Z,72.30
2019-03-30T07:15:58.269Z,72.70
2019-03-30T07:21:02.937Z,72.30
2019-03-30T07:26:07.439Z,72.00
2019-03-30T07:31:11.559Z,71.10
2019-03-30T07:36:15.681Z,71.00
2019-03-30T07:41:20.600Z,71.20
2019-03-30T07:46:24.719Z,71.00
2019-03-30T07:51:33.263Z,70.70
2019-03-30T07:56:36.262Z,70.20
2019-03-30T08:01:41.326Z,69.80
2019-03-30T08:06:45.943Z,68.80
2019-03-30T08:11:50.150Z,68.20
2019-03-30T08:16:54.274Z,67.80
2019-03-30T08:21:58.642Z,67.50
2019-03-30T08:27:03.413Z,66.30
2019-03-30T08:32:09.418Z,65.50
2019-03-30T08:37:13.901Z,65.40
2019-03-30T08:42:19.008Z,66.20
2019-03-30T08:47:23.504Z,65.90
2019-03-30T08:52:27.596Z,65.50
2019-03-30T08:57:32.478Z,65.40
2019-03-30T09:02:36.627Z,64.90
2019-03-30T09:07:40.902Z,63.10
2019-03-30T09:12:45.913Z,62.00
2019-03-30T09:17:50.568Z,61.80
2019-03-30T09:22:54.747Z,61.50
2019-03-30T09:27:59.704Z,61.00
2019-03-30T09:33:03.948Z,60.20
2019-03-30T09:38:08.306Z,57.70
2019-03-30T09:43:13.313Z,57.40
2019-03-30T09:48:18.649Z,55.80
2019-03-30T09:53:22.790Z,55.30
2019-03-30T09:58:26.949Z,55.60
2019-03-30T10:03:31.089Z,55.30
2019-03-30T10:08:36.438Z,55.10
2019-03-30T10:13:41.257Z,55.90
2019-03-30T10:18:47.110Z,55.90
2019-03-30T10:23:51.253Z,55.30
2019-03-30T10:28:55.793Z,56.50
2019-03-30T10:34:00.950Z,56.20
2019-03-30T10:39:07.528Z,56.80
2019-03-30T10:44:13.400Z,56.70
2019-03-30T10:49:19.159Z,57.00
2019-03-30T10:54:23.374Z,56.70
2019-03-30T10:59:27.815Z,57.30
2019-03-30T11:04:31.993Z,57.50
2019-03-30T11:09:38.803Z,57.20
2019-03-30T11:14:43.010Z,58.50
2019-03-30T11:19:48.442Z,58.10
2019-03-30T11:25:06.273Z,58.10
2019-03-30T11:29:58.740Z,57.80
2019-03-30T11:35:03.014Z,56.50
2019-03-30T11:40:07.394Z,56.20
2019-03-30T11:45:12.858Z,54.80
2019-03-30T11:50:16.994Z,54.90
2019-03-30T11:55:22.445Z,56.20
2019-03-30T12:00:27.116Z,56.40
2019-03-30T12:05:31.283Z,56.30
2019-03-30T12:10:36.916Z,54.80
2019-03-30T12:15:42.128Z,54.40
2019-03-30T12:20:58.772Z,54.40
2019-03-30T12:26:03.893Z,52.70
2019-03-30T12:31:08.097Z,53.80
2019-03-30T12:36:12.373Z,52.70
2019-03-30T12:41:16.542Z,51.90
2019-03-30T12:46:20.662Z,51.10
2019-03-30T12:51:24.978Z,50.50
2019-03-30T12:56:29.119Z,50.10
2019-03-30T13:01:33.274Z,48.10
2019-03-30T13:06:38.666Z,47.90
2019-03-30T13:11:44.008Z,47.30
2019-03-30T13:16:48.156Z,45.20
2019-03-30T13:21:53.109Z,45.80
2019-03-30T13:26:58.888Z,45.80
2019-03-30T13:32:03.033Z,45.20
2019-03-30T13:37:18.211Z,42.80
2019-03-30T13:42:24.048Z,43.40
2019-03-30T13:47:28.598Z,43.70
2019-03-30T13:52:33.644Z,43.90
2019-03-30T13:57:37.841Z,43.60
2019-03-30T14:02:44.072Z,42.40
2019-03-30T14:07:49.730Z,41.20
2019-03-30T14:12:53.870Z,41.00
2019-03-30T14:17:58.324Z,40.50
2019-03-30T14:23:02.462Z,39.60
2019-03-30T14:28:06.605Z,39.60
2019-03-30T14:33:10.716Z,39.50
2019-03-30T14:38:15.719Z,39.50
2019-03-30T14:43:19.860Z,38.90
2019-03-30T14:48:24.054Z,38.70
2019-03-30T14:53:28.456Z,38.00
2019-03-30T14:58:32.626Z,38.00
2019-03-30T15:03:36.957Z,37.10
2019-03-30T15:08:41.558Z,35.70
2019-03-30T15:13:45.691Z,33.50
2019-03-30T15:18:50.308Z,29.40
2019-03-30T15:23:55.990Z,28.40
2019-03-30T15:29:00.107Z,28.10
2019-03-30T15:34:03.628Z,26.50
2019-03-30T15:39:08.991Z,25.90
2019-03-30T15:44:13.466Z,26.40
2019-03-30T15:49:17.761Z,26.60
2019-03-30T15:54:21.944Z,27.00
2019-03-30T15:59:26.149Z,26.20
2019-03-30T16:04:30.412Z,26.30
2019-03-30T16:09:34.949Z,25.80
2019-03-30T16:14:39.052Z,24.20
2019-03-30T16:19:44.398Z,24.10
2019-03-30T16:24:49.450Z,25.00
2019-03-30T16:29:58.478Z,25.90
2019-03-30T16:35:01.507Z,25.50
2019-03-30T16:40:06.205Z,26.60
2019-03-30T16:45:11.319Z,27.90
2019-03-30T16:50:16.324Z,30.00
2019-03-30T16:55:22.390Z,33.10
2019-03-30T17:00:32.681Z,35.40
2019-03-30T17:05:36.895Z,37.70
2019-03-30T17:10:41.120Z,39.90
2019-03-30T17:15:49.360Z,41.20
2019-03-30T17:20:58.449Z,42.60
2019-03-30T17:26:02.960Z,44.50
2019-03-30T17:31:07.724Z,45.30
2019-03-30T17:36:11.856Z,47.60
2019-03-30T17:41:17.535Z,47.60
2019-03-30T17:46:23.899Z,48.50
2019-03-30T17:51:29.359Z,50.70
2019-03-30T17:56:33.690Z,50.70
2019-03-30T18:01:38.180Z,52.40
2019-03-30T18:06:43.120Z,54.50
2019-03-30T18:11:50.784Z,54.60
2019-03-30T18:16:55.238Z,56.10
2019-03-30T18:21:59.442Z,57.40
2019-03-30T18:27:05.451Z,57.30
2019-03-30T18:32:11.607Z,58.70
2019-03-30T18:37:18.043Z,58.20
2019-03-30T18:42:22.457Z,58.50
2019-03-30T18:47:26.954Z,59.00
2019-03-30T18:52:32.028Z,58.50
2019-03-30T18:57:39.542Z,58.80
2019-03-30T19:02:43.735Z,61.40
2019-03-30T19:07:47.934Z,62.00
2019-03-30T19:12:52.181Z,62.90
2019-03-30T19:17:56.745Z,63.00
2019-03-30T19:23:00.939Z,62.80
2019-03-30T19:28:22.438Z,63.60
2019-03-30T19:33:28.714Z,64.30
2019-03-30T19:38:33.587Z,64.20
2019-03-30T19:43:37.731Z,64.90
2019-03-30T19:48:44.086Z,65.50
2019-03-30T19:53:48.272Z,66.10
2019-03-30T19:58:54.519Z,67.20
2019-03-30T20:04:00.097Z,67.10
2019-03-30T20:09:08.401Z,67.50
2019-03-30T20:14:12.976Z,67.90
2019-03-30T20:19:17.159Z,67.90
2019-03-30T20:24:21.622Z,68.70
2019-03-30T20:29:26.578Z,69.40
2019-03-30T20:34:30.782Z,70.20
2019-03-30T20:39:38.480Z,70.90
2019-03-30T20:44:43.624Z,71.70
2019-03-30T20:49:49.362Z,69.30
2019-03-30T20:56:18.246Z,72.50
2019-03-30T21:01:22.770Z,70.60
2019-03-30T21:06:27.689Z,70.70
2019-03-30T21:11:31.923Z,71.20
2019-03-30T21:16:36.852Z,73.70
2019-03-30T21:21:43.672Z,71.80
2019-03-30T21:26:47.809Z,74.20
2019-03-30T21:31:53.041Z,73.50
2019-03-30T21:36:57.925Z,73.00
2019-03-30T21:42:02.927Z,73.60
2019-03-30T21:47:08.077Z,73.40
2019-03-30T21:52:14.245Z,75.40
2019-03-30T21:57:19.554Z,75.40
2019-03-30T22:02:23.770Z,75.40
2019-03-30T22:07:29.166Z,75.90
2019-03-30T22:12:34.587Z,76.00
2019-03-30T22:17:38.766Z,76.20
2019-03-30T22:22:43.856Z,76.50
2019-03-30T22:27:48.780Z,79.20
2019-03-30T22:32:52.995Z,77.50
2019-03-30T22:37:57.738Z,77.20
2019-03-30T22:43:02.039Z,77.60
2019-03-30T22:48:06.189Z,78.10
2019-03-30T22:53:10.650Z,77.90
2019-03-30T22:58:14.842Z,78.10
2019-03-30T23:03:22.815Z,76.40
2019-03-30T23:08:27.878Z,78.60
2019-03-30T23:13:32.646Z,78.00
2019-03-30T23:18:39.001Z,78.80
2019-03-30T23:23:44.436Z,78.50
2019-03-30T23:28:49.372Z,78.90
2019-03-30T23:33:54.899Z,76.10
2019-03-30T23:39:00.213Z,78.80
2019-03-30T23:44:04.724Z,79.20
2019-03-30T23:49:09.094Z,78.90
2019-03-30T23:54:15.648Z,78.90
2019-03-30T23:59:20.996Z,76.90
